Terminal Aerodrome Forecast
Issued by NWS

Current Version | Previous Version | Text Only | Print | Product List | Glossary On
Versions: 1 2 3 4 5 6 7 8 9 10 11 12 13 14 15 16
000
FTUS42 TJSJ 241100
TAFISX
TAF
TISX 241130Z 2412/2512 10005KT P6SM FEW025
     FM241300 11013KT P6SM VCSH SCT030 SCT050
     FM242300 10005KT P6SM SCT025
      AMD NOT SKED=

USA.gov is the U.S. government's official web portal to all federal, state and local government web resources and services.